Select Airport:
Chesapeake Regional Airport
Last updated: 17 minutes ago
Flight conditions: VFR
Visibility: 7.0 statute miles
Sky Conditions:
   Scattered clouds at 4200 feet
Wind From: 30°
Wind speed: 3 knots (3.45 mph)
Temperature: 19.9°C (67.82°F)
Dew Point: 10.5°C (50.9°F)
Altimiter setting: 29.78 in-hg
WX phone: 1-757-204-4290
WX freq: 123.675 MHz
Runway 5
   Crosswind component: 1.03 knots (1.18 mph)
   Headwind component: 2.82 knots (3.24 mph)
KCPK 272135Z AUTO 03003KT 7SM SCT042 20/11 A2978 RMK AO2 T01990105
FOR REFERENCE USE ONLY, DATA MAY NOT BE CURRENT.
ALWAYS CHECK FOR UP TO DATE INFORMATION.